createdAt,value
2023-02-08T00:03:54.554Z,101294.55
2023-02-08T00:08:57.471Z,101297.00
2023-02-08T00:14:00.168Z,101300.55
2023-02-08T00:19:15.740Z,101296.73
2023-02-08T00:24:20.031Z,101290.84
2023-02-08T00:29:21.965Z,101293.95
2023-02-08T00:34:30.616Z,101296.02
2023-02-08T00:39:32.892Z,101295.30
2023-02-08T00:44:35.254Z,101295.84
2023-02-08T00:49:37.996Z,101290.48
2023-02-08T00:54:42.350Z,101286.25
2023-02-08T00:59:44.519Z,101283.89
2023-02-08T01:04:49.216Z,101276.52
2023-02-08T01:09:51.573Z,101270.87
2023-02-08T01:14:57.311Z,101259.54
2023-02-08T01:20:00.243Z,101255.33
2023-02-08T01:25:03.173Z,101252.60
2023-02-08T01:30:13.938Z,101258.88
2023-02-08T01:35:16.533Z,101254.65
2023-02-08T01:40:22.228Z,101250.60
2023-02-08T01:45:34.148Z,101249.66
2023-02-08T01:51:10.999Z,101250.08
2023-02-08T01:56:22.385Z,101252.58
2023-02-08T02:01:26.240Z,101254.70
2023-02-08T02:06:40.252Z,101255.77
2023-02-08T02:11:45.025Z,101245.69
2023-02-08T02:16:47.286Z,101246.05
2023-02-08T02:22:14.176Z,101242.56
2023-02-08T02:27:30.076Z,101253.14
2023-02-08T02:33:00.247Z,101255.56
2023-02-08T02:38:45.379Z,101253.79
2023-02-08T02:43:58.660Z,101250.84
2023-02-08T02:49:20.746Z,101254.08
2023-02-08T02:54:27.484Z,101255.00
2023-02-08T02:59:33.906Z,101261.00
2023-02-08T03:04:38.807Z,101269.05
2023-02-08T03:10:22.929Z,101277.13
2023-02-08T03:16:03.925Z,101276.73
2023-02-08T03:21:49.315Z,101282.36
2023-02-08T03:27:47.694Z,101283.98
2023-02-08T03:33:09.962Z,101281.33
2023-02-08T03:38:35.971Z,101286.20
2023-02-08T03:44:02.485Z,101291.03
2023-02-08T03:49:15.742Z,101292.88
2023-02-08T03:54:23.335Z,101299.08
2023-02-08T04:00:02.581Z,101301.13
2023-02-08T04:05:27.214Z,101297.70
2023-02-08T04:10:29.475Z,101296.12
2023-02-08T04:15:32.501Z,101299.98
2023-02-08T04:20:34.349Z,101301.97
2023-02-08T04:25:36.729Z,101298.13
2023-02-08T04:30:39.194Z,101302.64
2023-02-08T04:35:42.529Z,101299.40
2023-02-08T04:40:45.405Z,101304.41
2023-02-08T04:45:50.555Z,101301.17
2023-02-08T04:50:59.201Z,101305.70
2023-02-08T04:56:01.321Z,101305.54
2023-02-08T05:01:10.855Z,101313.73
2023-02-08T05:06:13.254Z,101313.77
2023-02-08T05:11:23.784Z,101323.91
2023-02-08T05:16:28.885Z,101335.55
2023-02-08T05:21:33.469Z,101338.49
2023-02-08T05:26:35.795Z,101341.21
2023-02-08T05:31:37.967Z,101331.89
2023-02-08T05:36:43.393Z,101329.77
2023-02-08T05:41:45.412Z,101329.89
2023-02-08T05:46:48.037Z,101322.94
2023-02-08T05:51:50.360Z,101324.56
2023-02-08T05:56:52.338Z,101330.56
2023-02-08T06:01:54.286Z,101333.23
2023-02-08T06:06:56.741Z,101340.91
2023-02-08T06:12:02.067Z,101352.70
2023-02-08T06:17:07.200Z,101360.05
2023-02-08T06:22:09.613Z,101360.67
2023-02-08T06:27:11.621Z,101363.02
2023-02-08T06:32:21.363Z,101357.26
2023-02-08T06:37:26.595Z,101357.85
2023-02-08T06:42:28.988Z,101361.71
2023-02-08T06:47:34.775Z,101361.05
2023-02-08T06:52:37.480Z,101369.70
2023-02-08T06:57:39.409Z,101367.44
2023-02-08T07:02:41.821Z,101360.02
2023-02-08T07:07:43.936Z,101363.33
2023-02-08T07:12:53.681Z,101363.88
2023-02-08T07:18:00.113Z,101366.30
2023-02-08T07:23:02.363Z,101382.14
2023-02-08T07:28:05.091Z,101386.30
2023-02-08T07:33:10.914Z,101395.67
2023-02-08T07:38:20.620Z,101402.31
2023-02-08T07:43:23.235Z,101399.11
2023-02-08T07:48:28.439Z,101400.52
2023-02-08T07:53:31.281Z,101405.96
2023-02-08T07:58:33.874Z,101407.03
2023-02-08T08:03:36.356Z,101415.73
2023-02-08T08:08:39.790Z,101420.05
2023-02-08T08:13:42.324Z,101423.70
2023-02-08T08:18:44.796Z,101434.65
2023-02-08T08:23:50.971Z,101446.17
2023-02-08T08:28:53.463Z,101433.48
2023-02-08T08:33:55.970Z,101436.22
2023-02-08T08:38:58.765Z,101434.81
2023-02-08T08:44:01.908Z,101443.77
2023-02-08T08:49:05.277Z,101442.86
2023-02-08T08:54:08.558Z,101441.54
2023-02-08T08:59:10.998Z,101442.61
2023-02-08T09:04:13.672Z,101440.84
2023-02-08T09:09:18.204Z,101434.30
2023-02-08T09:14:20.746Z,101433.58
2023-02-08T09:19:23.736Z,101431.16
2023-02-08T09:24:26.238Z,101439.20
2023-02-08T09:29:30.463Z,101432.59
2023-02-08T09:34:33.315Z,101437.59
2023-02-08T09:39:37.859Z,101438.42
2023-02-08T09:45:57.880Z,101445.83
2023-02-08T09:51:37.526Z,101447.77
2023-02-08T09:56:42.187Z,101444.21
2023-02-08T10:01:46.728Z,101435.82
2023-02-08T10:06:50.138Z,101442.58
2023-02-08T10:12:18.838Z,101443.13
2023-02-08T10:18:04.930Z,101439.85
2023-02-08T10:23:42.431Z,101435.47
2023-02-08T10:29:58.149Z,101437.36
2023-02-08T10:35:01.569Z,101437.69
2023-02-08T10:40:21.072Z,101431.06
2023-02-08T10:45:45.865Z,101430.93
2023-02-08T10:50:48.234Z,101432.05
2023-02-08T10:55:51.121Z,101426.48
2023-02-08T11:00:54.283Z,101429.05
2023-02-08T11:05:59.561Z,101428.86
2023-02-08T11:11:08.965Z,101432.75
2023-02-08T11:16:19.921Z,101430.44
2023-02-08T11:21:34.683Z,101429.56
2023-02-08T11:26:38.165Z,101421.84
2023-02-08T11:32:02.326Z,101417.67
2023-02-08T11:37:24.064Z,101414.52
2023-02-08T11:42:37.450Z,101413.08
2023-02-08T11:47:39.851Z,101413.16
2023-02-08T11:52:46.156Z,101409.45
2023-02-08T11:57:55.766Z,101410.09
2023-02-08T12:03:13.872Z,101407.59
2023-02-08T12:08:50.036Z,101410.21
2023-02-08T12:14:22.659Z,101405.11
2023-02-08T12:19:42.582Z,101400.04
2023-02-08T12:25:32.197Z,101393.00
2023-02-08T12:30:39.476Z,101385.69
2023-02-08T12:36:04.103Z,101378.00
2023-02-08T12:41:21.525Z,101369.56
2023-02-08T12:46:32.551Z,101368.64
2023-02-08T12:51:59.341Z,101367.48
2023-02-08T12:57:03.542Z,101364.90
2023-02-08T13:02:47.368Z,101359.38
2023-02-08T13:07:58.511Z,101348.12
2023-02-08T13:13:30.679Z,101348.10
2023-02-08T13:18:40.000Z,101347.73
2023-02-08T13:23:52.728Z,101348.58
2023-02-08T13:28:59.434Z,101343.87
2023-02-08T13:34:14.771Z,101344.69
2023-02-08T13:39:49.231Z,101340.57
2023-02-08T13:44:55.474Z,101338.40
2023-02-08T13:50:00.852Z,101341.53
2023-02-08T13:55:51.312Z,101342.45
2023-02-08T14:00:53.908Z,101338.65
2023-02-08T14:06:08.673Z,101333.44
2023-02-08T14:11:40.735Z,101330.17
2023-02-08T14:16:45.444Z,101333.78
2023-02-08T14:21:50.533Z,101333.73
2023-02-08T14:27:28.301Z,101331.96
2023-02-08T14:32:35.758Z,101333.48
2023-02-08T14:37:38.560Z,101331.74
2023-02-08T14:43:07.856Z,101323.35
2023-02-08T14:48:47.630Z,101319.05
2023-02-08T14:54:07.004Z,101325.88
2023-02-08T14:59:21.302Z,101332.00
2023-02-08T15:04:24.127Z,101327.92
2023-02-08T15:09:32.860Z,101328.83
2023-02-08T15:14:37.501Z,101322.21
2023-02-08T15:19:40.828Z,101323.77
2023-02-08T15:25:25.810Z,101319.13
2023-02-08T15:30:39.215Z,101316.48
2023-02-08T15:35:43.212Z,101316.98
2023-02-08T15:41:04.392Z,101317.41
2023-02-08T15:46:19.093Z,101321.95
2023-02-08T15:51:24.275Z,101325.30
2023-02-08T15:56:38.404Z,101328.94
2023-02-08T16:01:47.239Z,101323.27
2023-02-08T16:06:56.218Z,101327.98
2023-02-08T16:12:01.016Z,101330.74
2023-02-08T16:17:04.374Z,101335.20
2023-02-08T16:22:22.952Z,101338.30
2023-02-08T16:27:29.874Z,101344.70
2023-02-08T16:32:35.939Z,101343.81
2023-02-08T16:37:38.692Z,101341.66
2023-02-08T16:42:41.049Z,101342.38
2023-02-08T16:47:49.978Z,101337.83
2023-02-08T16:52:59.766Z,101335.17
2023-02-08T16:58:02.230Z,101335.02
2023-02-08T17:03:04.940Z,101330.41
2023-02-08T17:08:12.136Z,101333.02
2023-02-08T17:13:20.181Z,101331.17
2023-02-08T17:18:23.171Z,101331.70
2023-02-08T17:23:26.606Z,101337.20
2023-02-08T17:28:29.379Z,101342.67
2023-02-08T17:33:36.532Z,101341.48
2023-02-08T17:38:40.366Z,101343.83
2023-02-08T17:43:42.379Z,101339.59
2023-02-08T17:48:46.686Z,101337.90
2023-02-08T17:53:51.263Z,101332.95
2023-02-08T17:58:55.766Z,101333.30
2023-02-08T18:03:59.604Z,101343.63
2023-02-08T18:09:02.870Z,101346.36
2023-02-08T18:14:09.577Z,101350.39
2023-02-08T18:19:12.354Z,101352.98
2023-02-08T18:24:14.716Z,101355.07
2023-02-08T18:29:18.529Z,101355.04
2023-02-08T18:34:21.349Z,101351.85
2023-02-08T18:39:24.196Z,101347.77
2023-02-08T18:44:26.235Z,101349.23
2023-02-08T18:49:28.236Z,101344.35
2023-02-08T18:54:33.767Z,101339.86
2023-02-08T18:59:35.974Z,101336.64
2023-02-08T19:04:39.189Z,101330.31
2023-02-08T19:09:44.648Z,101325.92
2023-02-08T19:14:51.141Z,101321.55
2023-02-08T19:19:54.072Z,101319.88
2023-02-08T19:25:07.927Z,101320.73
2023-02-08T19:30:10.593Z,101321.79
2023-02-08T19:35:12.876Z,101323.11
2023-02-08T19:40:15.748Z,101312.11
2023-02-08T19:45:18.089Z,101307.45
2023-02-08T19:50:20.065Z,101303.64
2023-02-08T19:55:23.514Z,101303.42
2023-02-08T20:00:25.969Z,101310.30
2023-02-08T20:05:27.782Z,101302.50
2023-02-08T20:10:29.842Z,101295.79
2023-02-08T20:15:34.799Z,101295.68
2023-02-08T20:20:37.737Z,101298.08
2023-02-08T20:25:39.770Z,101296.85
2023-02-08T20:30:42.038Z,101290.27
2023-02-08T20:35:44.442Z,101288.55
2023-02-08T20:40:46.553Z,101283.99
2023-02-08T20:45:48.706Z,101277.96
2023-02-08T20:50:51.170Z,101268.44
2023-02-08T20:55:53.255Z,101260.80
2023-02-08T21:00:55.237Z,101250.52
2023-02-08T21:05:58.177Z,101241.23
2023-02-08T21:11:02.318Z,101238.08
2023-02-08T21:16:06.157Z,101237.73
2023-02-08T21:21:09.482Z,101240.15
2023-02-08T21:26:14.914Z,101236.89
2023-02-08T21:31:19.983Z,101234.50
2023-02-08T21:36:24.000Z,101236.94
2023-02-08T21:41:29.380Z,101234.55
2023-02-08T21:46:32.670Z,101232.20
2023-02-08T21:51:53.930Z,101238.30
2023-02-08T21:57:01.686Z,101236.83
2023-02-08T22:02:07.181Z,101233.60
2023-02-08T22:07:09.318Z,101231.27
2023-02-08T22:12:18.777Z,101236.50
2023-02-08T22:17:20.845Z,101240.17
2023-02-08T22:22:22.694Z,101244.66
2023-02-08T22:27:27.621Z,101243.36
2023-02-08T22:32:32.273Z,101242.08
2023-02-08T22:37:35.369Z,101235.14
2023-02-08T22:42:39.112Z,101220.11
2023-02-08T22:47:41.125Z,101219.45
2023-02-08T22:52:43.033Z,101208.80
2023-02-08T22:57:45.149Z,101202.11
2023-02-08T23:02:47.193Z,101202.42
2023-02-08T23:07:49.615Z,101206.94
2023-02-08T23:12:51.552Z,101198.66
2023-02-08T23:17:54.204Z,101199.39
2023-02-08T23:22:56.658Z,101192.52
2023-02-08T23:27:59.156Z,101192.61
2023-02-08T23:33:01.042Z,101194.61
2023-02-08T23:38:03.725Z,101199.34
2023-02-08T23:43:06.645Z,101197.39
2023-02-08T23:48:08.654Z,101192.85
2023-02-08T23:53:10.718Z,101185.88
2023-02-08T23:58:12.748Z,101180.45
